sensor_id;sensor_type;location;lat;lon;timestamp;P1;durP1;ratioP1;P2;durP2;ratioP2
12976;SDS011;6553;48.412;9.514;2023-07-29T00:01:44;1.02;;;1.00;;
12976;SDS011;6553;48.412;9.514;2023-07-29T00:04:11;1.30;;;1.02;;
12976;SDS011;6553;48.412;9.514;2023-07-29T00:06:37;1.10;;;1.10;;
12976;SDS011;6553;48.412;9.514;2023-07-29T00:09:02;2.08;;;1.00;;
12976;SDS011;6553;48.412;9.514;2023-07-29T00:11:28;1.20;;;1.10;;
12976;SDS011;6553;48.412;9.514;2023-07-29T00:13:54;1.70;;;1.30;;
12976;SDS011;6553;48.412;9.514;2023-07-29T00:16:20;1.13;;;1.02;;
12976;SDS011;6553;48.412;9.514;2023-07-29T00:18:49;1.85;;;1.10;;
12976;SDS011;6553;48.412;9.514;2023-07-29T00:21:15;1.00;;;1.00;;
12976;SDS011;6553;48.412;9.514;2023-07-29T00:23:40;1.25;;;1.15;;
12976;SDS011;6553;48.412;9.514;2023-07-29T00:26:06;1.42;;;1.33;;
12976;SDS011;6553;48.412;9.514;2023-07-29T00:28:32;0.95;;;0.95;;
12976;SDS011;6553;48.412;9.514;2023-07-29T00:30:58;1.20;;;1.10;;
12976;SDS011;6553;48.412;9.514;2023-07-29T00:33:24;1.33;;;1.23;;
12976;SDS011;6553;48.412;9.514;2023-07-29T00:35:49;1.13;;;1.08;;
12976;SDS011;6553;48.412;9.514;2023-07-29T00:38:15;1.30;;;1.20;;
12976;SDS011;6553;48.412;9.514;2023-07-29T00:40:42;1.10;;;1.10;;
12976;SDS011;6553;48.412;9.514;2023-07-29T00:43:08;1.50;;;1.40;;
12976;SDS011;6553;48.412;9.514;2023-07-29T00:45:34;1.27;;;1.10;;
12976;SDS011;6553;48.412;9.514;2023-07-29T00:48:01;1.20;;;1.08;;
12976;SDS011;6553;48.412;9.514;2023-07-29T00:50:28;1.30;;;1.20;;
12976;SDS011;6553;48.412;9.514;2023-07-29T00:52:59;1.67;;;1.20;;
12976;SDS011;6553;48.412;9.514;2023-07-29T00:55:25;1.35;;;1.25;;
12976;SDS011;6553;48.412;9.514;2023-07-29T00:57:52;1.38;;;1.27;;
12976;SDS011;6553;48.412;9.514;2023-07-29T01:00:19;1.42;;;1.33;;
12976;SDS011;6553;48.412;9.514;2023-07-29T01:02:46;1.30;;;1.10;;
12976;SDS011;6553;48.412;9.514;2023-07-29T01:05:13;1.35;;;1.10;;
12976;SDS011;6553;48.412;9.514;2023-07-29T01:10:26;1.17;;;0.93;;
12976;SDS011;6553;48.412;9.514;2023-07-29T01:13:12;1.88;;;1.40;;
12976;SDS011;6553;48.412;9.514;2023-07-29T01:18:40;1.52;;;1.30;;
12976;SDS011;6553;48.412;9.514;2023-07-29T01:21:12;1.35;;;1.23;;
12976;SDS011;6553;48.412;9.514;2023-07-29T01:23:40;1.50;;;1.30;;
12976;SDS011;6553;48.412;9.514;2023-07-29T01:26:06;1.88;;;1.40;;
12976;SDS011;6553;48.412;9.514;2023-07-29T01:28:32;1.52;;;1.33;;
12976;SDS011;6553;48.412;9.514;2023-07-29T01:31:03;2.00;;;1.30;;
12976;SDS011;6553;48.412;9.514;2023-07-29T01:34:09;1.40;;;1.30;;
12976;SDS011;6553;48.412;9.514;2023-07-29T01:37:05;1.17;;;1.08;;
12976;SDS011;6553;48.412;9.514;2023-07-29T01:39:40;1.42;;;1.33;;
12976;SDS011;6553;48.412;9.514;2023-07-29T01:42:08;1.08;;;1.08;;
12976;SDS011;6553;48.412;9.514;2023-07-29T01:44:35;1.45;;;1.20;;
12976;SDS011;6553;48.412;9.514;2023-07-29T01:47:01;1.58;;;1.40;;
12976;SDS011;6553;48.412;9.514;2023-07-29T01:49:27;1.85;;;1.60;;
12976;SDS011;6553;48.412;9.514;2023-07-29T01:51:53;1.50;;;1.40;;
12976;SDS011;6553;48.412;9.514;2023-07-29T01:54:18;1.70;;;1.35;;
12976;SDS011;6553;48.412;9.514;2023-07-29T01:56:44;1.50;;;1.40;;
12976;SDS011;6553;48.412;9.514;2023-07-29T01:59:10;1.23;;;1.20;;
12976;SDS011;6553;48.412;9.514;2023-07-29T02:01:36;1.52;;;1.42;;
12976;SDS011;6553;48.412;9.514;2023-07-29T02:04:02;1.30;;;1.20;;
12976;SDS011;6553;48.412;9.514;2023-07-29T02:06:28;1.33;;;1.20;;
12976;SDS011;6553;48.412;9.514;2023-07-29T02:08:54;1.30;;;1.20;;
12976;SDS011;6553;48.412;9.514;2023-07-29T02:11:20;1.45;;;1.35;;
12976;SDS011;6553;48.412;9.514;2023-07-29T02:13:52;1.50;;;1.40;;
12976;SDS011;6553;48.412;9.514;2023-07-29T02:16:20;1.42;;;1.33;;
12976;SDS011;6553;48.412;9.514;2023-07-29T02:18:47;2.13;;;1.50;;
12976;SDS011;6553;48.412;9.514;2023-07-29T02:21:14;1.58;;;1.48;;
12976;SDS011;6553;48.412;9.514;2023-07-29T02:23:41;2.33;;;1.20;;
12976;SDS011;6553;48.412;9.514;2023-07-29T02:26:07;1.30;;;1.20;;
12976;SDS011;6553;48.412;9.514;2023-07-29T02:28:32;1.65;;;1.55;;
12976;SDS011;6553;48.412;9.514;2023-07-29T02:31:17;1.50;;;1.40;;
12976;SDS011;6553;48.412;9.514;2023-07-29T02:33:48;1.67;;;1.42;;
12976;SDS011;6553;48.412;9.514;2023-07-29T02:36:15;1.50;;;1.20;;
12976;SDS011;6553;48.412;9.514;2023-07-29T02:38:41;1.48;;;1.38;;
12976;SDS011;6553;48.412;9.514;2023-07-29T02:41:09;1.40;;;1.30;;
12976;SDS011;6553;48.412;9.514;2023-07-29T02:43:37;1.35;;;1.25;;
12976;SDS011;6553;48.412;9.514;2023-07-29T02:46:03;1.60;;;1.50;;
12976;SDS011;6553;48.412;9.514;2023-07-29T02:48:29;1.23;;;1.17;;
12976;SDS011;6553;48.412;9.514;2023-07-29T02:50:55;1.20;;;1.10;;
12976;SDS011;6553;48.412;9.514;2023-07-29T02:53:22;1.30;;;1.20;;
12976;SDS011;6553;48.412;9.514;2023-07-29T02:55:48;1.70;;;1.60;;
12976;SDS011;6553;48.412;9.514;2023-07-29T02:58:14;1.50;;;1.40;;
12976;SDS011;6553;48.412;9.514;2023-07-29T03:00:40;1.60;;;1.50;;
12976;SDS011;6553;48.412;9.514;2023-07-29T03:03:08;1.30;;;1.20;;
12976;SDS011;6553;48.412;9.514;2023-07-29T03:05:34;1.38;;;1.27;;
12976;SDS011;6553;48.412;9.514;2023-07-29T03:08:01;1.48;;;1.38;;
12976;SDS011;6553;48.412;9.514;2023-07-29T03:10:27;1.42;;;1.30;;
12976;SDS011;6553;48.412;9.514;2023-07-29T03:12:55;1.70;;;1.60;;
12976;SDS011;6553;48.412;9.514;2023-07-29T03:15:25;1.20;;;1.10;;
12976;SDS011;6553;48.412;9.514;2023-07-29T03:17:51;2.28;;;1.50;;
12976;SDS011;6553;48.412;9.514;2023-07-29T03:20:18;1.30;;;1.20;;
12976;SDS011;6553;48.412;9.514;2023-07-29T03:22:45;1.45;;;1.35;;
12976;SDS011;6553;48.412;9.514;2023-07-29T03:25:12;1.50;;;1.40;;
12976;SDS011;6553;48.412;9.514;2023-07-29T03:27:38;2.00;;;1.35;;
12976;SDS011;6553;48.412;9.514;2023-07-29T03:30:07;1.50;;;1.40;;
12976;SDS011;6553;48.412;9.514;2023-07-29T03:32:33;1.40;;;1.30;;
12976;SDS011;6553;48.412;9.514;2023-07-29T03:34:59;1.30;;;1.20;;
12976;SDS011;6553;48.412;9.514;2023-07-29T03:37:25;1.25;;;1.15;;
12976;SDS011;6553;48.412;9.514;2023-07-29T03:39:50;1.05;;;1.05;;
12976;SDS011;6553;48.412;9.514;2023-07-29T03:42:17;1.40;;;1.30;;
12976;SDS011;6553;48.412;9.514;2023-07-29T03:44:43;1.35;;;1.25;;
12976;SDS011;6553;48.412;9.514;2023-07-29T03:47:09;2.33;;;1.58;;
12976;SDS011;6553;48.412;9.514;2023-07-29T03:49:38;1.50;;;1.40;;
12976;SDS011;6553;48.412;9.514;2023-07-29T03:52:05;1.30;;;1.20;;
12976;SDS011;6553;48.412;9.514;2023-07-29T03:54:31;1.38;;;1.27;;
12976;SDS011;6553;48.412;9.514;2023-07-29T03:56:56;1.50;;;1.40;;
12976;SDS011;6553;48.412;9.514;2023-07-29T03:59:22;1.30;;;1.20;;
12976;SDS011;6553;48.412;9.514;2023-07-29T04:01:48;1.30;;;1.20;;
12976;SDS011;6553;48.412;9.514;2023-07-29T04:04:14;1.98;;;1.50;;
12976;SDS011;6553;48.412;9.514;2023-07-29T04:06:40;1.30;;;1.20;;
12976;SDS011;6553;48.412;9.514;2023-07-29T04:09:06;1.50;;;1.40;;
12976;SDS011;6553;48.412;9.514;2023-07-29T04:11:33;2.00;;;1.40;;
12976;SDS011;6553;48.412;9.514;2023-07-29T04:13:58;1.50;;;1.40;;
12976;SDS011;6553;48.412;9.514;2023-07-29T04:16:24;2.17;;;1.50;;
12976;SDS011;6553;48.412;9.514;2023-07-29T04:18:50;1.25;;;1.15;;
12976;SDS011;6553;48.412;9.514;2023-07-29T04:21:16;1.38;;;1.27;;
12976;SDS011;6553;48.412;9.514;2023-07-29T04:23:42;1.75;;;1.20;;
12976;SDS011;6553;48.412;9.514;2023-07-29T04:26:07;1.73;;;1.23;;
12976;SDS011;6553;48.412;9.514;2023-07-29T04:28:33;1.70;;;1.60;;
12976;SDS011;6553;48.412;9.514;2023-07-29T04:30:59;1.40;;;1.30;;
12976;SDS011;6553;48.412;9.514;2023-07-29T04:33:25;1.42;;;1.33;;
12976;SDS011;6553;48.412;9.514;2023-07-29T04:35:50;2.05;;;1.35;;
12976;SDS011;6553;48.412;9.514;2023-07-29T04:38:16;1.40;;;1.30;;
12976;SDS011;6553;48.412;9.514;2023-07-29T04:40:42;1.60;;;1.50;;
12976;SDS011;6553;48.412;9.514;2023-07-29T04:43:07;1.60;;;1.50;;
12976;SDS011;6553;48.412;9.514;2023-07-29T04:45:33;1.38;;;1.27;;
12976;SDS011;6553;48.412;9.514;2023-07-29T04:47:59;1.33;;;1.23;;
12976;SDS011;6553;48.412;9.514;2023-07-29T04:50:25;1.40;;;1.30;;
12976;SDS011;6553;48.412;9.514;2023-07-29T04:52:50;1.48;;;1.38;;
12976;SDS011;6553;48.412;9.514;2023-07-29T04:55:17;1.40;;;1.30;;
12976;SDS011;6553;48.412;9.514;2023-07-29T04:57:43;1.73;;;1.63;;
12976;SDS011;6553;48.412;9.514;2023-07-29T05:00:09;1.45;;;1.35;;
12976;SDS011;6553;48.412;9.514;2023-07-29T05:02:36;1.13;;;1.10;;
12976;SDS011;6553;48.412;9.514;2023-07-29T05:05:01;2.33;;;1.60;;
12976;SDS011;6553;48.412;9.514;2023-07-29T05:07:28;1.45;;;1.23;;
12976;SDS011;6553;48.412;9.514;2023-07-29T05:09:53;1.33;;;1.23;;
12976;SDS011;6553;48.412;9.514;2023-07-29T05:12:19;1.30;;;1.20;;
12976;SDS011;6553;48.412;9.514;2023-07-29T05:14:45;1.80;;;1.70;;
12976;SDS011;6553;48.412;9.514;2023-07-29T05:17:10;1.48;;;1.38;;
12976;SDS011;6553;48.412;9.514;2023-07-29T05:19:36;1.52;;;1.42;;
12976;SDS011;6553;48.412;9.514;2023-07-29T05:22:02;1.35;;;1.25;;
12976;SDS011;6553;48.412;9.514;2023-07-29T05:24:28;1.50;;;1.40;;
12976;SDS011;6553;48.412;9.514;2023-07-29T05:26:54;1.50;;;1.40;;
12976;SDS011;6553;48.412;9.514;2023-07-29T05:29:19;1.25;;;1.15;;
12976;SDS011;6553;48.412;9.514;2023-07-29T05:31:45;1.40;;;1.30;;
12976;SDS011;6553;48.412;9.514;2023-07-29T05:34:11;1.48;;;1.20;;
12976;SDS011;6553;48.412;9.514;2023-07-29T05:36:37;1.55;;;1.45;;
12976;SDS011;6553;48.412;9.514;2023-07-29T05:39:04;1.83;;;1.73;;
12976;SDS011;6553;48.412;9.514;2023-07-29T05:41:29;1.35;;;1.27;;
12976;SDS011;6553;48.412;9.514;2023-07-29T05:43:56;1.27;;;1.20;;
12976;SDS011;6553;48.412;9.514;2023-07-29T05:46:21;1.30;;;1.20;;
12976;SDS011;6553;48.412;9.514;2023-07-29T05:48:47;1.58;;;1.48;;
12976;SDS011;6553;48.412;9.514;2023-07-29T05:51:13;1.80;;;1.60;;
12976;SDS011;6553;48.412;9.514;2023-07-29T05:53:39;2.13;;;1.60;;
12976;SDS011;6553;48.412;9.514;2023-07-29T05:56:05;1.58;;;1.48;;
12976;SDS011;6553;48.412;9.514;2023-07-29T05:58:31;1.58;;;1.48;;
12976;SDS011;6553;48.412;9.514;2023-07-29T06:00:57;1.70;;;1.60;;
12976;SDS011;6553;48.412;9.514;2023-07-29T06:03:23;1.58;;;1.48;;
12976;SDS011;6553;48.412;9.514;2023-07-29T06:05:50;1.65;;;1.55;;
12976;SDS011;6553;48.412;9.514;2023-07-29T06:08:16;1.50;;;1.40;;
12976;SDS011;6553;48.412;9.514;2023-07-29T06:10:42;1.48;;;1.38;;
12976;SDS011;6553;48.412;9.514;2023-07-29T06:13:07;1.40;;;1.30;;
12976;SDS011;6553;48.412;9.514;2023-07-29T06:15:33;1.60;;;1.50;;
12976;SDS011;6553;48.412;9.514;2023-07-29T06:17:59;2.03;;;1.50;;
12976;SDS011;6553;48.412;9.514;2023-07-29T06:20:25;1.60;;;1.50;;
12976;SDS011;6553;48.412;9.514;2023-07-29T06:22:51;2.13;;;1.40;;
12976;SDS011;6553;48.412;9.514;2023-07-29T06:25:17;1.88;;;1.63;;
12976;SDS011;6553;48.412;9.514;2023-07-29T06:27:43;1.45;;;1.25;;
12976;SDS011;6553;48.412;9.514;2023-07-29T06:30:09;1.52;;;1.42;;
12976;SDS011;6553;48.412;9.514;2023-07-29T06:32:35;1.50;;;1.40;;
12976;SDS011;6553;48.412;9.514;2023-07-29T06:35:00;1.48;;;1.38;;
12976;SDS011;6553;48.412;9.514;2023-07-29T06:37:26;1.50;;;1.40;;
12976;SDS011;6553;48.412;9.514;2023-07-29T06:39:52;1.63;;;1.52;;
12976;SDS011;6553;48.412;9.514;2023-07-29T06:42:18;1.85;;;1.30;;
12976;SDS011;6553;48.412;9.514;2023-07-29T06:44:43;1.42;;;1.33;;
12976;SDS011;6553;48.412;9.514;2023-07-29T06:47:11;1.65;;;1.55;;
12976;SDS011;6553;48.412;9.514;2023-07-29T06:49:37;1.60;;;1.50;;
12976;SDS011;6553;48.412;9.514;2023-07-29T06:52:02;1.52;;;1.42;;
12976;SDS011;6553;48.412;9.514;2023-07-29T06:54:28;1.88;;;1.52;;
12976;SDS011;6553;48.412;9.514;2023-07-29T06:56:54;1.50;;;1.40;;
12976;SDS011;6553;48.412;9.514;2023-07-29T06:59:20;1.50;;;1.40;;
12976;SDS011;6553;48.412;9.514;2023-07-29T07:01:46;1.60;;;1.50;;
12976;SDS011;6553;48.412;9.514;2023-07-29T07:04:11;1.75;;;1.65;;
12976;SDS011;6553;48.412;9.514;2023-07-29T07:06:37;1.30;;;1.25;;
12976;SDS011;6553;48.412;9.514;2023-07-29T07:09:03;1.40;;;1.30;;
12976;SDS011;6553;48.412;9.514;2023-07-29T07:11:29;1.40;;;1.30;;
12976;SDS011;6553;48.412;9.514;2023-07-29T07:13:54;1.60;;;1.50;;
12976;SDS011;6553;48.412;9.514;2023-07-29T07:16:20;1.70;;;1.60;;
12976;SDS011;6553;48.412;9.514;2023-07-29T07:18:46;1.40;;;1.30;;
12976;SDS011;6553;48.412;9.514;2023-07-29T07:21:11;1.08;;;1.02;;
12976;SDS011;6553;48.412;9.514;2023-07-29T07:23:38;1.40;;;1.30;;
12976;SDS011;6553;48.412;9.514;2023-07-29T07:26:04;1.83;;;1.70;;
12976;SDS011;6553;48.412;9.514;2023-07-29T07:28:30;1.52;;;1.42;;
12976;SDS011;6553;48.412;9.514;2023-07-29T07:30:56;1.55;;;1.45;;
12976;SDS011;6553;48.412;9.514;2023-07-29T07:33:22;1.70;;;1.60;;
12976;SDS011;6553;48.412;9.514;2023-07-29T07:35:48;1.38;;;1.27;;
12976;SDS011;6553;48.412;9.514;2023-07-29T07:38:13;1.50;;;1.40;;
12976;SDS011;6553;48.412;9.514;2023-07-29T07:40:39;1.55;;;1.45;;
12976;SDS011;6553;48.412;9.514;2023-07-29T07:43:05;1.33;;;1.23;;
12976;SDS011;6553;48.412;9.514;2023-07-29T07:45:31;1.42;;;1.33;;
12976;SDS011;6553;48.412;9.514;2023-07-29T07:47:57;1.50;;;1.40;;
12976;SDS011;6553;48.412;9.514;2023-07-29T07:50:24;1.58;;;1.48;;
12976;SDS011;6553;48.412;9.514;2023-07-29T07:52:49;1.50;;;1.40;;
12976;SDS011;6553;48.412;9.514;2023-07-29T07:55:15;1.45;;;1.35;;
12976;SDS011;6553;48.412;9.514;2023-07-29T07:57:41;1.63;;;1.50;;
12976;SDS011;6553;48.412;9.514;2023-07-29T08:00:07;1.38;;;1.25;;
12976;SDS011;6553;48.412;9.514;2023-07-29T08:02:41;1.45;;;1.35;;
12976;SDS011;6553;48.412;9.514;2023-07-29T08:05:09;1.58;;;1.48;;
12976;SDS011;6553;48.412;9.514;2023-07-29T08:07:34;1.88;;;1.27;;
12976;SDS011;6553;48.412;9.514;2023-07-29T08:10:00;1.60;;;1.50;;
12976;SDS011;6553;48.412;9.514;2023-07-29T08:12:26;1.48;;;1.30;;
12976;SDS011;6553;48.412;9.514;2023-07-29T08:14:52;2.13;;;1.30;;
12976;SDS011;6553;48.412;9.514;2023-07-29T08:17:17;1.48;;;1.38;;
12976;SDS011;6553;48.412;9.514;2023-07-29T08:19:43;1.73;;;1.63;;
12976;SDS011;6553;48.412;9.514;2023-07-29T08:22:09;1.35;;;1.25;;
12976;SDS011;6553;48.412;9.514;2023-07-29T08:24:34;1.27;;;1.17;;
12976;SDS011;6553;48.412;9.514;2023-07-29T08:27:00;1.80;;;1.70;;
12976;SDS011;6553;48.412;9.514;2023-07-29T08:29:26;1.55;;;1.45;;
12976;SDS011;6553;48.412;9.514;2023-07-29T08:31:52;1.20;;;1.10;;
12976;SDS011;6553;48.412;9.514;2023-07-29T08:34:17;1.33;;;1.23;;
12976;SDS011;6553;48.412;9.514;2023-07-29T08:36:43;1.40;;;1.30;;
12976;SDS011;6553;48.412;9.514;2023-07-29T08:39:09;1.83;;;1.30;;
12976;SDS011;6553;48.412;9.514;2023-07-29T08:41:37;1.50;;;1.40;;
12976;SDS011;6553;48.412;9.514;2023-07-29T08:44:18;1.60;;;1.50;;
12976;SDS011;6553;48.412;9.514;2023-07-29T08:46:51;1.30;;;1.20;;
12976;SDS011;6553;48.412;9.514;2023-07-29T08:49:19;1.38;;;1.27;;
12976;SDS011;6553;48.412;9.514;2023-07-29T08:51:48;1.30;;;1.20;;
12976;SDS011;6553;48.412;9.514;2023-07-29T08:54:15;1.35;;;1.25;;
12976;SDS011;6553;48.412;9.514;2023-07-29T08:56:42;2.10;;;1.30;;
12976;SDS011;6553;48.412;9.514;2023-07-29T08:59:08;2.15;;;1.70;;
12976;SDS011;6553;48.412;9.514;2023-07-29T09:01:36;2.70;;;1.55;;
12976;SDS011;6553;48.412;9.514;2023-07-29T09:04:03;1.60;;;1.35;;
12976;SDS011;6553;48.412;9.514;2023-07-29T09:06:30;1.98;;;1.60;;
12976;SDS011;6553;48.412;9.514;2023-07-29T09:08:58;1.58;;;0.90;;
12976;SDS011;6553;48.412;9.514;2023-07-29T09:11:24;1.40;;;1.30;;
12976;SDS011;6553;48.412;9.514;2023-07-29T09:13:51;1.85;;;1.20;;
12976;SDS011;6553;48.412;9.514;2023-07-29T09:16:18;2.13;;;1.40;;
12976;SDS011;6553;48.412;9.514;2023-07-29T09:18:49;1.52;;;1.42;;
12976;SDS011;6553;48.412;9.514;2023-07-29T09:21:23;1.33;;;1.23;;
12976;SDS011;6553;48.412;9.514;2023-07-29T09:23:53;1.52;;;1.42;;
12976;SDS011;6553;48.412;9.514;2023-07-29T09:26:24;1.58;;;1.38;;
12976;SDS011;6553;48.412;9.514;2023-07-29T09:28:55;1.40;;;1.30;;
12976;SDS011;6553;48.412;9.514;2023-07-29T09:31:24;3.13;;;1.30;;
12976;SDS011;6553;48.412;9.514;2023-07-29T09:33:59;3.63;;;1.60;;
12976;SDS011;6553;48.412;9.514;2023-07-29T09:36:29;2.25;;;1.67;;
12976;SDS011;6553;48.412;9.514;2023-07-29T09:38:57;2.88;;;1.50;;
12976;SDS011;6553;48.412;9.514;2023-07-29T09:41:24;2.08;;;1.52;;
12976;SDS011;6553;48.412;9.514;2023-07-29T09:44:10;3.03;;;1.50;;
12976;SDS011;6553;48.412;9.514;2023-07-29T09:46:36;3.40;;;1.65;;
12976;SDS011;6553;48.412;9.514;2023-07-29T09:49:06;1.73;;;1.60;;
12976;SDS011;6553;48.412;9.514;2023-07-29T09:51:39;2.47;;;1.35;;
12976;SDS011;6553;48.412;9.514;2023-07-29T09:54:05;1.83;;;1.50;;
12976;SDS011;6553;48.412;9.514;2023-07-29T09:56:31;3.72;;;1.88;;
12976;SDS011;6553;48.412;9.514;2023-07-29T09:58:57;3.08;;;1.70;;
12976;SDS011;6553;48.412;9.514;2023-07-29T10:01:23;2.63;;;1.40;;
12976;SDS011;6553;48.412;9.514;2023-07-29T10:03:49;5.30;;;1.70;;
12976;SDS011;6553;48.412;9.514;2023-07-29T10:06:16;3.60;;;1.50;;
12976;SDS011;6553;48.412;9.514;2023-07-29T10:08:43;3.83;;;2.03;;
12976;SDS011;6553;48.412;9.514;2023-07-29T10:11:10;5.00;;;2.17;;
12976;SDS011;6553;48.412;9.514;2023-07-29T10:13:37;5.60;;;2.30;;
12976;SDS011;6553;48.412;9.514;2023-07-29T10:16:04;9.00;;;2.85;;
12976;SDS011;6553;48.412;9.514;2023-07-29T10:18:33;3.72;;;2.10;;
12976;SDS011;6553;48.412;9.514;2023-07-29T10:20:59;9.93;;;2.50;;
12976;SDS011;6553;48.412;9.514;2023-07-29T10:23:27;6.70;;;2.63;;
12976;SDS011;6553;48.412;9.514;2023-07-29T10:26:05;7.18;;;2.45;;
12976;SDS011;6553;48.412;9.514;2023-07-29T10:28:35;9.75;;;2.80;;
12976;SDS011;6553;48.412;9.514;2023-07-29T10:31:09;4.32;;;2.15;;
12976;SDS011;6553;48.412;9.514;2023-07-29T10:33:37;6.45;;;2.63;;
12976;SDS011;6553;48.412;9.514;2023-07-29T10:36:04;11.68;;;2.88;;
12976;SDS011;6553;48.412;9.514;2023-07-29T10:38:30;6.38;;;2.70;;
12976;SDS011;6553;48.412;9.514;2023-07-29T10:40:56;5.95;;;2.35;;
12976;SDS011;6553;48.412;9.514;2023-07-29T10:43:31;7.68;;;2.50;;
12976;SDS011;6553;48.412;9.514;2023-07-29T10:46:16;6.90;;;2.28;;
12976;SDS011;6553;48.412;9.514;2023-07-29T10:48:51;3.38;;;1.92;;
12976;SDS011;6553;48.412;9.514;2023-07-29T10:51:30;6.68;;;2.38;;
12976;SDS011;6553;48.412;9.514;2023-07-29T10:54:01;4.88;;;2.35;;
12976;SDS011;6553;48.412;9.514;2023-07-29T10:56:40;4.47;;;2.30;;
12976;SDS011;6553;48.412;9.514;2023-07-29T11:01:37;5.15;;;2.20;;
12976;SDS011;6553;48.412;9.514;2023-07-29T11:09:58;5.38;;;2.30;;
12976;SDS011;6553;48.412;9.514;2023-07-29T11:15:07;3.15;;;1.92;;
12976;SDS011;6553;48.412;9.514;2023-07-29T11:20:26;6.15;;;2.38;;
12976;SDS011;6553;48.412;9.514;2023-07-29T11:22:54;3.53;;;2.28;;
12976;SDS011;6553;48.412;9.514;2023-07-29T11:25:26;5.50;;;2.20;;
12976;SDS011;6553;48.412;9.514;2023-07-29T11:27:54;4.00;;;2.20;;
12976;SDS011;6553;48.412;9.514;2023-07-29T11:30:23;4.75;;;2.25;;
12976;SDS011;6553;48.412;9.514;2023-07-29T11:32:54;3.03;;;2.40;;
12976;SDS011;6553;48.412;9.514;2023-07-29T11:35:20;3.80;;;2.20;;
12976;SDS011;6553;48.412;9.514;2023-07-29T11:37:48;3.47;;;2.28;;
12976;SDS011;6553;48.412;9.514;2023-07-29T11:40:17;3.60;;;2.22;;
12976;SDS011;6553;48.412;9.514;2023-07-29T11:42:45;4.88;;;2.10;;
12976;SDS011;6553;48.412;9.514;2023-07-29T11:45:13;3.45;;;2.20;;
12976;SDS011;6553;48.412;9.514;2023-07-29T11:47:40;4.53;;;1.95;;
12976;SDS011;6553;48.412;9.514;2023-07-29T11:50:07;5.18;;;2.55;;
12976;SDS011;6553;48.412;9.514;2023-07-29T11:52:36;2.65;;;1.90;;
12976;SDS011;6553;48.412;9.514;2023-07-29T11:55:04;4.65;;;2.25;;
12976;SDS011;6553;48.412;9.514;2023-07-29T11:57:31;5.00;;;2.35;;
12976;SDS011;6553;48.412;9.514;2023-07-29T12:00:05;2.83;;;2.22;;
12976;SDS011;6553;48.412;9.514;2023-07-29T12:02:36;3.85;;;2.30;;
12976;SDS011;6553;48.412;9.514;2023-07-29T12:05:04;4.32;;;2.15;;
12976;SDS011;6553;48.412;9.514;2023-07-29T12:07:32;2.38;;;1.80;;
12976;SDS011;6553;48.412;9.514;2023-07-29T12:09:59;3.80;;;2.20;;
12976;SDS011;6553;48.412;9.514;2023-07-29T12:12:26;2.20;;;2.00;;
12976;SDS011;6553;48.412;9.514;2023-07-29T12:14:53;2.47;;;2.13;;
12976;SDS011;6553;48.412;9.514;2023-07-29T12:17:20;5.65;;;2.60;;
12976;SDS011;6553;48.412;9.514;2023-07-29T12:19:45;5.60;;;2.80;;
12976;SDS011;6553;48.412;9.514;2023-07-29T12:22:11;5.53;;;2.90;;
12976;SDS011;6553;48.412;9.514;2023-07-29T12:24:38;7.47;;;3.35;;
12976;SDS011;6553;48.412;9.514;2023-07-29T12:27:09;5.32;;;2.47;;
12976;SDS011;6553;48.412;9.514;2023-07-29T12:29:43;7.05;;;3.35;;
12976;SDS011;6553;48.412;9.514;2023-07-29T12:32:11;6.25;;;3.80;;
12976;SDS011;6553;48.412;9.514;2023-07-29T12:34:38;8.77;;;5.40;;
12976;SDS011;6553;48.412;9.514;2023-07-29T12:37:04;9.65;;;4.68;;
12976;SDS011;6553;48.412;9.514;2023-07-29T12:39:32;4.93;;;3.90;;
12976;SDS011;6553;48.412;9.514;2023-07-29T12:42:01;5.75;;;3.38;;
12976;SDS011;6553;48.412;9.514;2023-07-29T12:44:30;11.55;;;4.78;;
12976;SDS011;6553;48.412;9.514;2023-07-29T12:47:02;7.15;;;3.40;;
12976;SDS011;6553;48.412;9.514;2023-07-29T12:49:30;8.13;;;4.43;;
12976;SDS011;6553;48.412;9.514;2023-07-29T12:51:57;3.58;;;2.78;;
12976;SDS011;6553;48.412;9.514;2023-07-29T12:54:24;7.80;;;4.28;;
12976;SDS011;6553;48.412;9.514;2023-07-29T12:56:50;7.15;;;4.00;;
12976;SDS011;6553;48.412;9.514;2023-07-29T12:59:16;6.75;;;4.03;;
12976;SDS011;6553;48.412;9.514;2023-07-29T13:01:42;10.20;;;4.78;;
12976;SDS011;6553;48.412;9.514;2023-07-29T13:04:09;7.38;;;4.55;;
12976;SDS011;6553;48.412;9.514;2023-07-29T13:06:35;7.15;;;3.80;;
12976;SDS011;6553;48.412;9.514;2023-07-29T13:09:03;6.70;;;4.30;;
12976;SDS011;6553;48.412;9.514;2023-07-29T13:11:30;4.95;;;3.50;;
12976;SDS011;6553;48.412;9.514;2023-07-29T13:13:57;7.15;;;4.00;;
12976;SDS011;6553;48.412;9.514;2023-07-29T13:16:23;5.80;;;3.95;;
12976;SDS011;6553;48.412;9.514;2023-07-29T13:18:49;7.00;;;3.92;;
12976;SDS011;6553;48.412;9.514;2023-07-29T13:21:15;6.05;;;3.65;;
12976;SDS011;6553;48.412;9.514;2023-07-29T13:23:40;7.07;;;4.10;;
12976;SDS011;6553;48.412;9.514;2023-07-29T13:26:06;6.22;;;3.63;;
12976;SDS011;6553;48.412;9.514;2023-07-29T13:28:32;7.07;;;4.10;;
12976;SDS011;6553;48.412;9.514;2023-07-29T13:30:58;7.72;;;3.72;;
12976;SDS011;6553;48.412;9.514;2023-07-29T13:33:23;8.15;;;3.78;;
12976;SDS011;6553;48.412;9.514;2023-07-29T13:35:49;5.80;;;3.75;;
12976;SDS011;6553;48.412;9.514;2023-07-29T13:38:15;7.15;;;3.83;;
12976;SDS011;6553;48.412;9.514;2023-07-29T13:40:41;6.40;;;3.72;;
12976;SDS011;6553;48.412;9.514;2023-07-29T13:43:07;6.72;;;3.53;;
12976;SDS011;6553;48.412;9.514;2023-07-29T13:45:33;5.88;;;3.70;;
12976;SDS011;6553;48.412;9.514;2023-07-29T13:47:59;6.65;;;3.65;;
12976;SDS011;6553;48.412;9.514;2023-07-29T13:50:25;4.80;;;3.40;;
12976;SDS011;6553;48.412;9.514;2023-07-29T13:52:51;7.55;;;3.70;;
12976;SDS011;6553;48.412;9.514;2023-07-29T13:55:17;5.10;;;3.58;;
12976;SDS011;6553;48.412;9.514;2023-07-29T13:57:42;8.57;;;4.50;;
12976;SDS011;6553;48.412;9.514;2023-07-29T14:00:08;4.60;;;3.70;;
12976;SDS011;6553;48.412;9.514;2023-07-29T14:02:37;4.45;;;3.28;;
12976;SDS011;6553;48.412;9.514;2023-07-29T14:05:03;4.82;;;3.45;;
12976;SDS011;6553;48.412;9.514;2023-07-29T14:07:29;5.13;;;3.20;;
12976;SDS011;6553;48.412;9.514;2023-07-29T14:09:54;5.68;;;3.20;;
12976;SDS011;6553;48.412;9.514;2023-07-29T14:12:20;6.72;;;3.88;;
12976;SDS011;6553;48.412;9.514;2023-07-29T14:14:46;6.57;;;3.60;;
12976;SDS011;6553;48.412;9.514;2023-07-29T14:17:11;5.78;;;3.40;;
12976;SDS011;6553;48.412;9.514;2023-07-29T14:19:37;5.85;;;3.63;;
12976;SDS011;6553;48.412;9.514;2023-07-29T14:22:03;6.30;;;3.60;;
12976;SDS011;6553;48.412;9.514;2023-07-29T14:24:29;6.55;;;3.72;;
12976;SDS011;6553;48.412;9.514;2023-07-29T14:26:55;5.47;;;3.20;;
12976;SDS011;6553;48.412;9.514;2023-07-29T14:29:21;5.45;;;3.30;;
12976;SDS011;6553;48.412;9.514;2023-07-29T14:31:46;4.95;;;3.03;;
12976;SDS011;6553;48.412;9.514;2023-07-29T14:34:12;6.50;;;3.55;;
12976;SDS011;6553;48.412;9.514;2023-07-29T14:36:38;4.63;;;3.35;;
12976;SDS011;6553;48.412;9.514;2023-07-29T14:39:03;3.50;;;2.92;;
12976;SDS011;6553;48.412;9.514;2023-07-29T14:41:30;5.13;;;2.90;;
12976;SDS011;6553;48.412;9.514;2023-07-29T14:43:56;4.15;;;3.00;;
12976;SDS011;6553;48.412;9.514;2023-07-29T14:46:22;6.55;;;3.00;;
12976;SDS011;6553;48.412;9.514;2023-07-29T14:48:48;4.68;;;2.92;;
12976;SDS011;6553;48.412;9.514;2023-07-29T14:51:14;3.88;;;2.85;;
12976;SDS011;6553;48.412;9.514;2023-07-29T14:53:40;6.00;;;3.30;;
12976;SDS011;6553;48.412;9.514;2023-07-29T14:56:06;4.05;;;2.92;;
12976;SDS011;6553;48.412;9.514;2023-07-29T14:58:32;4.88;;;3.10;;
12976;SDS011;6553;48.412;9.514;2023-07-29T15:00:58;5.70;;;2.63;;
12976;SDS011;6553;48.412;9.514;2023-07-29T15:03:24;4.32;;;2.97;;
12976;SDS011;6553;48.412;9.514;2023-07-29T15:05:50;4.65;;;2.92;;
12976;SDS011;6553;48.412;9.514;2023-07-29T15:08:16;3.85;;;2.88;;
12976;SDS011;6553;48.412;9.514;2023-07-29T15:10:49;4.45;;;3.30;;
12976;SDS011;6553;48.412;9.514;2023-07-29T15:13:15;4.35;;;3.25;;
12976;SDS011;6553;48.412;9.514;2023-07-29T15:15:42;3.22;;;2.80;;
12976;SDS011;6553;48.412;9.514;2023-07-29T15:18:08;4.97;;;2.88;;
12976;SDS011;6553;48.412;9.514;2023-07-29T15:20:34;5.55;;;3.10;;